Terminal Aerodrome Forecast
Issued by NWS Jackson, KY

Home | Current Version | Previous Version | Text Only | Print | Product List | Glossary On
Versions: 1 2 3 4 5 6 7 8 9 10 11 12 13 14
463
FTUS43 KJKL 312320
TAFLOZ
TAF
KLOZ 312320Z 0100/0124 35004KT P6SM SCT050 BKN150
     FM011000 00000KT 6SM BR SCT006 BKN030
     FM011400 01004KT 5SM BR VCSH BKN008 BKN015
     FM011700 02008KT P6SM SCT035=

USA.gov is the U.S. government's official web portal to all federal, state and local government web resources and services.